sensor_id;sensor_type;location;lat;lon;timestamp;P1;durP1;ratioP1;P2;durP2;ratioP2
27402;SDS011;14862;49.494;8.530;2022-10-18T00:00:37;10.25;;;8.18;;
27402;SDS011;14862;49.494;8.530;2022-10-18T00:03:03;15.57;;;9.10;;
27402;SDS011;14862;49.494;8.530;2022-10-18T00:05:28;11.07;;;7.50;;
27402;SDS011;14862;49.494;8.530;2022-10-18T00:07:53;10.30;;;6.87;;
27402;SDS011;14862;49.494;8.530;2022-10-18T00:10:18;12.97;;;7.23;;
27402;SDS011;14862;49.494;8.530;2022-10-18T00:12:43;13.75;;;7.38;;
27402;SDS011;14862;49.494;8.530;2022-10-18T00:15:09;10.47;;;6.90;;
27402;SDS011;14862;49.494;8.530;2022-10-18T00:17:35;15.77;;;7.47;;
27402;SDS011;14862;49.494;8.530;2022-10-18T00:20:00;8.75;;;7.50;;
27402;SDS011;14862;49.494;8.530;2022-10-18T00:22:25;8.38;;;7.13;;
27402;SDS011;14862;49.494;8.530;2022-10-18T00:24:51;12.55;;;7.35;;
27402;SDS011;14862;49.494;8.530;2022-10-18T00:27:16;19.35;;;8.02;;
27402;SDS011;14862;49.494;8.530;2022-10-18T00:29:41;12.82;;;8.15;;
27402;SDS011;14862;49.494;8.530;2022-10-18T00:32:06;22.23;;;9.67;;
27402;SDS011;14862;49.494;8.530;2022-10-18T00:34:32;14.07;;;7.18;;
27402;SDS011;14862;49.494;8.530;2022-10-18T00:36:57;16.80;;;6.57;;
27402;SDS011;14862;49.494;8.530;2022-10-18T00:39:22;14.90;;;7.57;;
27402;SDS011;14862;49.494;8.530;2022-10-18T00:41:48;15.45;;;7.93;;
27402;SDS011;14862;49.494;8.530;2022-10-18T00:46:42;9.85;;;7.05;;
27402;SDS011;14862;49.494;8.530;2022-10-18T00:49:12;14.43;;;6.95;;
27402;SDS011;14862;49.494;8.530;2022-10-18T00:51:42;15.10;;;6.72;;
27402;SDS011;14862;49.494;8.530;2022-10-18T00:54:09;12.82;;;7.00;;
27402;SDS011;14862;49.494;8.530;2022-10-18T00:56:34;8.65;;;6.50;;
27402;SDS011;14862;49.494;8.530;2022-10-18T00:59:00;9.68;;;6.82;;
27402;SDS011;14862;49.494;8.530;2022-10-18T01:01:26;18.17;;;6.85;;
27402;SDS011;14862;49.494;8.530;2022-10-18T01:03:51;16.10;;;7.40;;
27402;SDS011;14862;49.494;8.530;2022-10-18T01:06:16;9.68;;;6.22;;
27402;SDS011;14862;49.494;8.530;2022-10-18T01:14:01;9.52;;;6.63;;
27402;SDS011;14862;49.494;8.530;2022-10-18T01:16:37;8.73;;;6.50;;
27402;SDS011;14862;49.494;8.530;2022-10-18T01:19:17;11.93;;;6.47;;
27402;SDS011;14862;49.494;8.530;2022-10-18T01:21:56;14.43;;;6.45;;
27402;SDS011;14862;49.494;8.530;2022-10-18T01:32:48;8.85;;;6.15;;
27402;SDS011;14862;49.494;8.530;2022-10-18T01:35:19;15.82;;;5.50;;
27402;SDS011;14862;49.494;8.530;2022-10-18T01:37:46;12.40;;;6.25;;
27402;SDS011;14862;49.494;8.530;2022-10-18T01:40:13;8.20;;;5.90;;
27402;SDS011;14862;49.494;8.530;2022-10-18T01:42:40;7.85;;;5.85;;
27402;SDS011;14862;49.494;8.530;2022-10-18T01:45:06;9.98;;;5.95;;
27402;SDS011;14862;49.494;8.530;2022-10-18T01:47:32;10.07;;;5.25;;
27402;SDS011;14862;49.494;8.530;2022-10-18T01:49:58;11.50;;;5.63;;
27402;SDS011;14862;49.494;8.530;2022-10-18T01:52:24;11.40;;;5.55;;
27402;SDS011;14862;49.494;8.530;2022-10-18T01:54:49;14.23;;;4.70;;
27402;SDS011;14862;49.494;8.530;2022-10-18T02:02:53;8.38;;;3.92;;
27402;SDS011;14862;49.494;8.530;2022-10-18T02:10:34;5.90;;;4.03;;
27402;SDS011;14862;49.494;8.530;2022-10-18T02:13:02;7.85;;;4.97;;
27402;SDS011;14862;49.494;8.530;2022-10-18T02:15:32;11.07;;;4.50;;
27402;SDS011;14862;49.494;8.530;2022-10-18T02:17:58;10.77;;;4.85;;
27402;SDS011;14862;49.494;8.530;2022-10-18T02:20:25;12.70;;;3.90;;
27402;SDS011;14862;49.494;8.530;2022-10-18T02:22:52;9.50;;;4.55;;
27402;SDS011;14862;49.494;8.530;2022-10-18T02:25:20;12.95;;;4.00;;
27402;SDS011;14862;49.494;8.530;2022-10-18T02:27:46;7.15;;;4.13;;
27402;SDS011;14862;49.494;8.530;2022-10-18T02:30:11;6.13;;;4.25;;
27402;SDS011;14862;49.494;8.530;2022-10-18T02:32:42;7.55;;;4.28;;
27402;SDS011;14862;49.494;8.530;2022-10-18T02:35:10;9.93;;;4.20;;
27402;SDS011;14862;49.494;8.530;2022-10-18T02:37:38;9.85;;;3.97;;
27402;SDS011;14862;49.494;8.530;2022-10-18T02:40:04;11.02;;;5.35;;
27402;SDS011;14862;49.494;8.530;2022-10-18T02:42:33;7.68;;;4.53;;
27402;SDS011;14862;49.494;8.530;2022-10-18T02:44:59;7.55;;;4.57;;
27402;SDS011;14862;49.494;8.530;2022-10-18T02:47:24;7.90;;;3.83;;
27402;SDS011;14862;49.494;8.530;2022-10-18T02:49:49;6.43;;;4.22;;
27402;SDS011;14862;49.494;8.530;2022-10-18T02:52:14;8.87;;;4.87;;
27402;SDS011;14862;49.494;8.530;2022-10-18T02:54:40;14.60;;;4.90;;
27402;SDS011;14862;49.494;8.530;2022-10-18T02:57:05;8.98;;;4.40;;
27402;SDS011;14862;49.494;8.530;2022-10-18T02:59:30;8.90;;;4.20;;
27402;SDS011;14862;49.494;8.530;2022-10-18T03:01:55;5.73;;;4.20;;
27402;SDS011;14862;49.494;8.530;2022-10-18T03:04:21;7.10;;;4.20;;
27402;SDS011;14862;49.494;8.530;2022-10-18T03:06:46;11.00;;;4.55;;
27402;SDS011;14862;49.494;8.530;2022-10-18T03:09:11;12.73;;;6.07;;
27402;SDS011;14862;49.494;8.530;2022-10-18T03:11:36;9.05;;;4.85;;
27402;SDS011;14862;49.494;8.530;2022-10-18T03:14:02;9.15;;;5.32;;
27402;SDS011;14862;49.494;8.530;2022-10-18T03:16:27;10.37;;;4.53;;
27402;SDS011;14862;49.494;8.530;2022-10-18T03:18:52;12.13;;;5.88;;
27402;SDS011;14862;49.494;8.530;2022-10-18T03:21:17;14.88;;;4.97;;
27402;SDS011;14862;49.494;8.530;2022-10-18T03:23:43;7.93;;;4.80;;
27402;SDS011;14862;49.494;8.530;2022-10-18T03:26:08;10.65;;;5.20;;
27402;SDS011;14862;49.494;8.530;2022-10-18T03:28:33;9.80;;;5.55;;
27402;SDS011;14862;49.494;8.530;2022-10-18T03:31:02;10.47;;;4.67;;
27402;SDS011;14862;49.494;8.530;2022-10-18T03:33:28;11.10;;;4.72;;
27402;SDS011;14862;49.494;8.530;2022-10-18T03:35:53;12.25;;;5.28;;
27402;SDS011;14862;49.494;8.530;2022-10-18T03:38:18;10.55;;;4.80;;
27402;SDS011;14862;49.494;8.530;2022-10-18T03:40:44;12.60;;;4.97;;
27402;SDS011;14862;49.494;8.530;2022-10-18T03:43:09;16.45;;;4.90;;
27402;SDS011;14862;49.494;8.530;2022-10-18T03:45:34;7.77;;;4.70;;
27402;SDS011;14862;49.494;8.530;2022-10-18T03:47:59;6.68;;;4.50;;
27402;SDS011;14862;49.494;8.530;2022-10-18T03:50:25;6.97;;;3.97;;
27402;SDS011;14862;49.494;8.530;2022-10-18T03:52:50;12.48;;;4.75;;
27402;SDS011;14862;49.494;8.530;2022-10-18T03:55:15;7.53;;;4.50;;
27402;SDS011;14862;49.494;8.530;2022-10-18T03:57:40;8.02;;;5.18;;
27402;SDS011;14862;49.494;8.530;2022-10-18T04:00:06;10.95;;;5.93;;
27402;SDS011;14862;49.494;8.530;2022-10-18T04:02:31;9.52;;;5.05;;
27402;SDS011;14862;49.494;8.530;2022-10-18T04:04:56;8.60;;;4.80;;
27402;SDS011;14862;49.494;8.530;2022-10-18T04:07:22;9.18;;;4.97;;
27402;SDS011;14862;49.494;8.530;2022-10-18T04:09:48;10.32;;;5.00;;
27402;SDS011;14862;49.494;8.530;2022-10-18T04:12:13;13.93;;;6.03;;
27402;SDS011;14862;49.494;8.530;2022-10-18T04:14:38;10.10;;;5.00;;
27402;SDS011;14862;49.494;8.530;2022-10-18T04:17:03;15.18;;;5.65;;
27402;SDS011;14862;49.494;8.530;2022-10-18T04:19:29;12.83;;;5.33;;
27402;SDS011;14862;49.494;8.530;2022-10-18T04:21:54;10.23;;;6.40;;
27402;SDS011;14862;49.494;8.530;2022-10-18T04:24:19;11.48;;;5.35;;
27402;SDS011;14862;49.494;8.530;2022-10-18T04:26:44;9.88;;;5.13;;
27402;SDS011;14862;49.494;8.530;2022-10-18T04:29:10;9.18;;;5.75;;
27402;SDS011;14862;49.494;8.530;2022-10-18T04:31:35;8.15;;;5.13;;
27402;SDS011;14862;49.494;8.530;2022-10-18T04:34:00;12.13;;;6.15;;
27402;SDS011;14862;49.494;8.530;2022-10-18T04:36:28;11.45;;;5.85;;
27402;SDS011;14862;49.494;8.530;2022-10-18T04:38:53;7.72;;;5.22;;
27402;SDS011;14862;49.494;8.530;2022-10-18T04:41:18;8.18;;;5.70;;
27402;SDS011;14862;49.494;8.530;2022-10-18T04:43:48;10.73;;;5.50;;
27402;SDS011;14862;49.494;8.530;2022-10-18T04:46:14;9.40;;;5.68;;
27402;SDS011;14862;49.494;8.530;2022-10-18T04:48:39;9.48;;;5.88;;
27402;SDS011;14862;49.494;8.530;2022-10-18T04:51:04;13.43;;;5.55;;
27402;SDS011;14862;49.494;8.530;2022-10-18T04:53:30;12.35;;;5.97;;
27402;SDS011;14862;49.494;8.530;2022-10-18T04:55:55;9.63;;;5.38;;
27402;SDS011;14862;49.494;8.530;2022-10-18T04:58:20;8.43;;;6.07;;
27402;SDS011;14862;49.494;8.530;2022-10-18T05:00:45;11.27;;;5.95;;
27402;SDS011;14862;49.494;8.530;2022-10-18T05:03:12;12.10;;;6.78;;
27402;SDS011;14862;49.494;8.530;2022-10-18T05:05:37;14.02;;;7.35;;
27402;SDS011;14862;49.494;8.530;2022-10-18T05:08:03;11.87;;;5.80;;
27402;SDS011;14862;49.494;8.530;2022-10-18T05:10:28;12.93;;;5.82;;
27402;SDS011;14862;49.494;8.530;2022-10-18T05:12:53;9.40;;;5.55;;
27402;SDS011;14862;49.494;8.530;2022-10-18T05:15:19;10.07;;;6.47;;
27402;SDS011;14862;49.494;8.530;2022-10-18T05:17:44;13.77;;;6.00;;
27402;SDS011;14862;49.494;8.530;2022-10-18T05:20:09;9.50;;;6.33;;
27402;SDS011;14862;49.494;8.530;2022-10-18T05:22:34;16.13;;;6.25;;
27402;SDS011;14862;49.494;8.530;2022-10-18T05:24:59;8.25;;;5.57;;
27402;SDS011;14862;49.494;8.530;2022-10-18T05:27:25;6.53;;;5.05;;
27402;SDS011;14862;49.494;8.530;2022-10-18T05:29:50;10.10;;;5.63;;
27402;SDS011;14862;49.494;8.530;2022-10-18T05:32:15;11.43;;;5.32;;
27402;SDS011;14862;49.494;8.530;2022-10-18T05:34:40;10.25;;;5.63;;
27402;SDS011;14862;49.494;8.530;2022-10-18T05:37:06;10.80;;;5.03;;
27402;SDS011;14862;49.494;8.530;2022-10-18T05:39:31;14.43;;;8.35;;
27402;SDS011;14862;49.494;8.530;2022-10-18T05:41:56;13.83;;;6.63;;
27402;SDS011;14862;49.494;8.530;2022-10-18T05:44:22;15.48;;;8.93;;
27402;SDS011;14862;49.494;8.530;2022-10-18T05:46:47;21.67;;;9.05;;
27402;SDS011;14862;49.494;8.530;2022-10-18T05:49:12;16.20;;;8.45;;
27402;SDS011;14862;49.494;8.530;2022-10-18T05:51:38;11.82;;;6.20;;
27402;SDS011;14862;49.494;8.530;2022-10-18T05:54:03;8.55;;;5.68;;
27402;SDS011;14862;49.494;8.530;2022-10-18T05:56:28;12.57;;;5.85;;
27402;SDS011;14862;49.494;8.530;2022-10-18T05:58:54;10.80;;;5.80;;
27402;SDS011;14862;49.494;8.530;2022-10-18T06:01:19;10.90;;;5.13;;
27402;SDS011;14862;49.494;8.530;2022-10-18T06:03:44;20.15;;;7.10;;
27402;SDS011;14862;49.494;8.530;2022-10-18T06:06:11;12.38;;;6.10;;
27402;SDS011;14862;49.494;8.530;2022-10-18T06:08:37;13.05;;;5.82;;
27402;SDS011;14862;49.494;8.530;2022-10-18T06:11:09;15.60;;;7.63;;
27402;SDS011;14862;49.494;8.530;2022-10-18T06:13:38;9.32;;;6.00;;
27402;SDS011;14862;49.494;8.530;2022-10-18T06:16:03;10.25;;;6.63;;
27402;SDS011;14862;49.494;8.530;2022-10-18T06:18:29;10.00;;;6.07;;
27402;SDS011;14862;49.494;8.530;2022-10-18T06:20:57;14.13;;;6.13;;
27402;SDS011;14862;49.494;8.530;2022-10-18T06:23:23;11.57;;;6.28;;
27402;SDS011;14862;49.494;8.530;2022-10-18T06:25:49;9.38;;;6.13;;
27402;SDS011;14862;49.494;8.530;2022-10-18T06:28:14;12.35;;;5.85;;
27402;SDS011;14862;49.494;8.530;2022-10-18T06:30:39;8.80;;;5.60;;
27402;SDS011;14862;49.494;8.530;2022-10-18T06:33:04;10.10;;;6.13;;
27402;SDS011;14862;49.494;8.530;2022-10-18T06:35:29;12.20;;;5.53;;
27402;SDS011;14862;49.494;8.530;2022-10-18T06:37:55;9.93;;;5.60;;
27402;SDS011;14862;49.494;8.530;2022-10-18T06:40:21;11.77;;;6.13;;
27402;SDS011;14862;49.494;8.530;2022-10-18T06:42:46;13.77;;;6.13;;
27402;SDS011;14862;49.494;8.530;2022-10-18T06:45:12;9.45;;;5.75;;
27402;SDS011;14862;49.494;8.530;2022-10-18T06:47:38;10.40;;;7.47;;
27402;SDS011;14862;49.494;8.530;2022-10-18T06:50:03;10.93;;;6.45;;
27402;SDS011;14862;49.494;8.530;2022-10-18T06:52:29;12.18;;;6.55;;
27402;SDS011;14862;49.494;8.530;2022-10-18T06:54:54;13.50;;;7.33;;
27402;SDS011;14862;49.494;8.530;2022-10-18T06:57:19;14.07;;;6.93;;
27402;SDS011;14862;49.494;8.530;2022-10-18T06:59:45;17.63;;;8.07;;
27402;SDS011;14862;49.494;8.530;2022-10-18T07:02:13;12.13;;;7.78;;
27402;SDS011;14862;49.494;8.530;2022-10-18T07:04:39;17.92;;;7.78;;
27402;SDS011;14862;49.494;8.530;2022-10-18T07:07:04;22.25;;;7.63;;
27402;SDS011;14862;49.494;8.530;2022-10-18T07:09:29;18.10;;;7.93;;
27402;SDS011;14862;49.494;8.530;2022-10-18T07:11:54;14.77;;;8.17;;
27402;SDS011;14862;49.494;8.530;2022-10-18T07:14:20;17.03;;;7.17;;
27402;SDS011;14862;49.494;8.530;2022-10-18T07:16:45;14.70;;;7.87;;
27402;SDS011;14862;49.494;8.530;2022-10-18T07:19:10;10.80;;;7.28;;
27402;SDS011;14862;49.494;8.530;2022-10-18T07:21:36;20.50;;;7.97;;
27402;SDS011;14862;49.494;8.530;2022-10-18T07:24:01;15.05;;;7.07;;
27402;SDS011;14862;49.494;8.530;2022-10-18T07:26:27;17.47;;;8.40;;
27402;SDS011;14862;49.494;8.530;2022-10-18T07:28:57;17.23;;;8.23;;
27402;SDS011;14862;49.494;8.530;2022-10-18T07:31:24;20.90;;;10.27;;
27402;SDS011;14862;49.494;8.530;2022-10-18T07:33:49;16.23;;;7.63;;
27402;SDS011;14862;49.494;8.530;2022-10-18T07:36:14;14.35;;;7.65;;
27402;SDS011;14862;49.494;8.530;2022-10-18T07:38:40;16.00;;;8.02;;
27402;SDS011;14862;49.494;8.530;2022-10-18T07:41:06;13.65;;;7.82;;
27402;SDS011;14862;49.494;8.530;2022-10-18T07:43:32;18.35;;;7.63;;
27402;SDS011;14862;49.494;8.530;2022-10-18T07:45:58;11.63;;;7.10;;
27402;SDS011;14862;49.494;8.530;2022-10-18T07:48:24;12.82;;;7.95;;
27402;SDS011;14862;49.494;8.530;2022-10-18T07:50:49;13.88;;;7.68;;
27402;SDS011;14862;49.494;8.530;2022-10-18T07:53:14;9.27;;;7.18;;
27402;SDS011;14862;49.494;8.530;2022-10-18T07:55:40;14.05;;;7.88;;
27402;SDS011;14862;49.494;8.530;2022-10-18T07:58:05;14.77;;;7.72;;
27402;SDS011;14862;49.494;8.530;2022-10-18T08:00:31;9.70;;;7.45;;
27402;SDS011;14862;49.494;8.530;2022-10-18T08:02:56;14.70;;;8.10;;
27402;SDS011;14862;49.494;8.530;2022-10-18T08:05:22;14.15;;;8.23;;
27402;SDS011;14862;49.494;8.530;2022-10-18T08:07:47;12.93;;;8.63;;
27402;SDS011;14862;49.494;8.530;2022-10-18T08:10:12;16.10;;;9.20;;
27402;SDS011;14862;49.494;8.530;2022-10-18T08:12:38;15.40;;;8.60;;
27402;SDS011;14862;49.494;8.530;2022-10-18T08:15:03;20.60;;;8.40;;
27402;SDS011;14862;49.494;8.530;2022-10-18T08:17:28;15.68;;;9.20;;
27402;SDS011;14862;49.494;8.530;2022-10-18T08:19:53;14.17;;;9.20;;
27402;SDS011;14862;49.494;8.530;2022-10-18T08:22:19;20.83;;;8.80;;
27402;SDS011;14862;49.494;8.530;2022-10-18T08:24:46;19.60;;;8.15;;
27402;SDS011;14862;49.494;8.530;2022-10-18T08:27:11;15.45;;;8.50;;
27402;SDS011;14862;49.494;8.530;2022-10-18T08:29:37;16.98;;;8.52;;
27402;SDS011;14862;49.494;8.530;2022-10-18T08:32:02;19.67;;;9.57;;
27402;SDS011;14862;49.494;8.530;2022-10-18T08:34:27;18.55;;;9.50;;
27402;SDS011;14862;49.494;8.530;2022-10-18T08:36:53;26.08;;;9.70;;
27402;SDS011;14862;49.494;8.530;2022-10-18T08:39:18;22.70;;;9.18;;
27402;SDS011;14862;49.494;8.530;2022-10-18T08:44:16;15.82;;;9.52;;
27402;SDS011;14862;49.494;8.530;2022-10-18T08:47:04;23.25;;;10.43;;
27402;SDS011;14862;49.494;8.530;2022-10-18T08:49:30;19.25;;;9.93;;
27402;SDS011;14862;49.494;8.530;2022-10-18T08:52:00;20.83;;;11.57;;
27402;SDS011;14862;49.494;8.530;2022-10-18T08:54:28;17.70;;;9.70;;
27402;SDS011;14862;49.494;8.530;2022-10-18T08:56:57;27.20;;;9.50;;
27402;SDS011;14862;49.494;8.530;2022-10-18T08:59:23;18.30;;;10.75;;
27402;SDS011;14862;49.494;8.530;2022-10-18T09:02:02;19.25;;;9.98;;
27402;SDS011;14862;49.494;8.530;2022-10-18T09:04:44;16.65;;;8.63;;
27402;SDS011;14862;49.494;8.530;2022-10-18T09:09:52;13.63;;;8.27;;
27402;SDS011;14862;49.494;8.530;2022-10-18T09:15:03;15.00;;;8.30;;
27402;SDS011;14862;49.494;8.530;2022-10-18T09:25:21;14.13;;;9.95;;
27402;SDS011;14862;49.494;8.530;2022-10-18T09:32:55;13.60;;;8.85;;
27402;SDS011;14862;49.494;8.530;2022-10-18T09:35:33;11.52;;;8.13;;
27402;SDS011;14862;49.494;8.530;2022-10-18T09:38:02;14.63;;;8.90;;
27402;SDS011;14862;49.494;8.530;2022-10-18T09:40:29;13.98;;;8.82;;
27402;SDS011;14862;49.494;8.530;2022-10-18T09:50:34;13.05;;;8.27;;
27402;SDS011;14862;49.494;8.530;2022-10-18T09:53:10;13.88;;;8.25;;
27402;SDS011;14862;49.494;8.530;2022-10-18T09:58:20;11.32;;;8.90;;
27402;SDS011;14862;49.494;8.530;2022-10-18T10:00:48;13.77;;;8.57;;
27402;SDS011;14862;49.494;8.530;2022-10-18T10:03:14;10.75;;;7.80;;
27402;SDS011;14862;49.494;8.530;2022-10-18T10:05:40;15.23;;;8.82;;
27402;SDS011;14862;49.494;8.530;2022-10-18T10:08:05;14.10;;;9.25;;
27402;SDS011;14862;49.494;8.530;2022-10-18T10:10:31;16.02;;;8.48;;
27402;SDS011;14862;49.494;8.530;2022-10-18T10:15:44;11.63;;;8.05;;
27402;SDS011;14862;49.494;8.530;2022-10-18T10:18:17;13.95;;;8.52;;
27402;SDS011;14862;49.494;8.530;2022-10-18T10:20:47;11.48;;;7.97;;
27402;SDS011;14862;49.494;8.530;2022-10-18T10:23:22;14.95;;;9.15;;
27402;SDS011;14862;49.494;8.530;2022-10-18T10:25:53;14.80;;;9.15;;
27402;SDS011;14862;49.494;8.530;2022-10-18T10:28:21;11.95;;;8.68;;
27402;SDS011;14862;49.494;8.530;2022-10-18T10:30:46;14.15;;;9.82;;
27402;SDS011;14862;49.494;8.530;2022-10-18T10:33:34;16.38;;;10.02;;
27402;SDS011;14862;49.494;8.530;2022-10-18T10:35:59;16.13;;;10.88;;
27402;SDS011;14862;49.494;8.530;2022-10-18T10:38:25;16.90;;;9.77;;
27402;SDS011;14862;49.494;8.530;2022-10-18T10:40:51;15.43;;;10.13;;
27402;SDS011;14862;49.494;8.530;2022-10-18T10:45:58;16.50;;;9.63;;
27402;SDS011;14862;49.494;8.530;2022-10-18T10:48:24;18.05;;;10.00;;
27402;SDS011;14862;49.494;8.530;2022-10-18T10:50:54;11.32;;;9.88;;
27402;SDS011;14862;49.494;8.530;2022-10-18T10:53:27;12.98;;;8.25;;
27402;SDS011;14862;49.494;8.530;2022-10-18T10:55:54;11.55;;;7.78;;
27402;SDS011;14862;49.494;8.530;2022-10-18T10:58:20;10.68;;;8.10;;
27402;SDS011;14862;49.494;8.530;2022-10-18T11:00:45;11.63;;;7.68;;
27402;SDS011;14862;49.494;8.530;2022-10-18T11:05:46;13.00;;;7.70;;
27402;SDS011;14862;49.494;8.530;2022-10-18T11:08:14;8.15;;;6.78;;
27402;SDS011;14862;49.494;8.530;2022-10-18T11:10:47;13.07;;;6.35;;
27402;SDS011;14862;49.494;8.530;2022-10-18T11:15:46;10.50;;;5.93;;
27402;SDS011;14862;49.494;8.530;2022-10-18T11:23:18;11.50;;;8.10;;
27402;SDS011;14862;49.494;8.530;2022-10-18T11:25:57;8.60;;;6.15;;
27402;SDS011;14862;49.494;8.530;2022-10-18T11:31:07;10.48;;;7.25;;
27402;SDS011;14862;49.494;8.530;2022-10-18T11:38:44;8.67;;;5.77;;
27402;SDS011;14862;49.494;8.530;2022-10-18T11:41:14;11.40;;;5.85;;
27402;SDS011;14862;49.494;8.530;2022-10-18T11:51:13;6.10;;;5.15;;
27402;SDS011;14862;49.494;8.530;2022-10-18T12:01:16;11.23;;;5.82;;
27402;SDS011;14862;49.494;8.530;2022-10-18T12:03:52;8.57;;;5.85;;
27402;SDS011;14862;49.494;8.530;2022-10-18T12:06:22;8.23;;;5.97;;
27402;SDS011;14862;49.494;8.530;2022-10-18T12:08:53;8.10;;;4.20;;
27402;SDS011;14862;49.494;8.530;2022-10-18T12:11:20;11.35;;;4.22;;
27402;SDS011;14862;49.494;8.530;2022-10-18T12:13:49;8.48;;;4.45;;
27402;SDS011;14862;49.494;8.530;2022-10-18T12:16:17;7.32;;;3.78;;
27402;SDS011;14862;49.494;8.530;2022-10-18T12:21:14;10.98;;;4.68;;
27402;SDS011;14862;49.494;8.530;2022-10-18T12:23:46;8.57;;;6.68;;
27402;SDS011;14862;49.494;8.530;2022-10-18T12:26:13;10.10;;;6.53;;
27402;SDS011;14862;49.494;8.530;2022-10-18T12:31:26;10.70;;;7.53;;
27402;SDS011;14862;49.494;8.530;2022-10-18T12:33:55;15.00;;;7.70;;
27402;SDS011;14862;49.494;8.530;2022-10-18T12:38:46;19.93;;;7.60;;
27402;SDS011;14862;49.494;8.530;2022-10-18T12:41:18;9.50;;;6.72;;
27402;SDS011;14862;49.494;8.530;2022-10-18T12:43:49;9.40;;;6.50;;
27402;SDS011;14862;49.494;8.530;2022-10-18T12:46:15;6.97;;;5.82;;
27402;SDS011;14862;49.494;8.530;2022-10-18T12:48:41;8.00;;;5.90;;
27402;SDS011;14862;49.494;8.530;2022-10-18T12:51:22;9.98;;;5.82;;
27402;SDS011;14862;49.494;8.530;2022-10-18T12:54:07;11.57;;;6.25;;
27402;SDS011;14862;49.494;8.530;2022-10-18T12:56:35;8.75;;;5.15;;
27402;SDS011;14862;49.494;8.530;2022-10-18T13:17:28;6.72;;;3.67;;
27402;SDS011;14862;49.494;8.530;2022-10-18T13:20:02;5.35;;;3.28;;
27402;SDS011;14862;49.494;8.530;2022-10-18T13:27:48;3.75;;;3.17;;
27402;SDS011;14862;49.494;8.530;2022-10-18T13:37:57;5.68;;;2.90;;
27402;SDS011;14862;49.494;8.530;2022-10-18T13:40:24;6.25;;;2.67;;
27402;SDS011;14862;49.494;8.530;2022-10-18T13:42:49;3.95;;;2.38;;
27402;SDS011;14862;49.494;8.530;2022-10-18T13:47:55;3.60;;;2.95;;
27402;SDS011;14862;49.494;8.530;2022-10-18T13:50:25;4.55;;;3.85;;
27402;SDS011;14862;49.494;8.530;2022-10-18T14:00:48;5.97;;;2.40;;
27402;SDS011;14862;49.494;8.530;2022-10-18T14:03:23;3.30;;;2.30;;
27402;SDS011;14862;49.494;8.530;2022-10-18T14:06:10;6.32;;;2.22;;
27402;SDS011;14862;49.494;8.530;2022-10-18T14:11:26;5.00;;;1.90;;
27402;SDS011;14862;49.494;8.530;2022-10-18T14:14:03;3.42;;;2.30;;
27402;SDS011;14862;49.494;8.530;2022-10-18T14:18:57;4.28;;;2.30;;
27402;SDS011;14862;49.494;8.530;2022-10-18T14:21:27;4.82;;;2.33;;
27402;SDS011;14862;49.494;8.530;2022-10-18T14:23:54;9.02;;;2.67;;
27402;SDS011;14862;49.494;8.530;2022-10-18T14:26:19;7.93;;;2.42;;
27402;SDS011;14862;49.494;8.530;2022-10-18T14:28:45;3.67;;;2.42;;
27402;SDS011;14862;49.494;8.530;2022-10-18T14:31:25;3.13;;;2.40;;
27402;SDS011;14862;49.494;8.530;2022-10-18T14:33:51;4.78;;;2.80;;
27402;SDS011;14862;49.494;8.530;2022-10-18T14:41:23;5.25;;;3.03;;
27402;SDS011;14862;49.494;8.530;2022-10-18T14:43:49;4.93;;;2.60;;
27402;SDS011;14862;49.494;8.530;2022-10-18T14:46:19;3.22;;;2.70;;
27402;SDS011;14862;49.494;8.530;2022-10-18T14:48:57;3.33;;;2.72;;
27402;SDS011;14862;49.494;8.530;2022-10-18T14:51:23;4.30;;;2.47;;
27402;SDS011;14862;49.494;8.530;2022-10-18T14:53:49;3.17;;;2.60;;
27402;SDS011;14862;49.494;8.530;2022-10-18T14:56:20;2.25;;;2.13;;
27402;SDS011;14862;49.494;8.530;2022-10-18T14:58:47;5.35;;;2.25;;
27402;SDS011;14862;49.494;8.530;2022-10-18T15:01:16;3.50;;;2.28;;
27402;SDS011;14862;49.494;8.530;2022-10-18T15:03:41;5.05;;;2.63;;
27402;SDS011;14862;49.494;8.530;2022-10-18T15:06:07;3.60;;;2.03;;
27402;SDS011;14862;49.494;8.530;2022-10-18T15:08:34;6.40;;;2.72;;
27402;SDS011;14862;49.494;8.530;2022-10-18T15:11:00;4.45;;;2.40;;
27402;SDS011;14862;49.494;8.530;2022-10-18T15:13:26;4.80;;;2.63;;
27402;SDS011;14862;49.494;8.530;2022-10-18T15:15:52;2.90;;;2.22;;
27402;SDS011;14862;49.494;8.530;2022-10-18T15:18:24;4.13;;;2.70;;
27402;SDS011;14862;49.494;8.530;2022-10-18T15:21:23;5.72;;;2.40;;
27402;SDS011;14862;49.494;8.530;2022-10-18T15:23:41;4.18;;;2.28;;
27402;SDS011;14862;49.494;8.530;2022-10-18T15:26:08;5.93;;;2.40;;
27402;SDS011;14862;49.494;8.530;2022-10-18T15:28:36;3.05;;;2.20;;
27402;SDS011;14862;49.494;8.530;2022-10-18T15:31:03;2.75;;;2.47;;
27402;SDS011;14862;49.494;8.530;2022-10-18T15:33:29;5.00;;;2.30;;
27402;SDS011;14862;49.494;8.530;2022-10-18T15:36:08;2.95;;;2.60;;
27402;SDS011;14862;49.494;8.530;2022-10-18T15:38:34;6.07;;;2.40;;
27402;SDS011;14862;49.494;8.530;2022-10-18T15:41:01;5.20;;;2.40;;
27402;SDS011;14862;49.494;8.530;2022-10-18T15:45:56;2.95;;;2.50;;
27402;SDS011;14862;49.494;8.530;2022-10-18T15:58:15;5.40;;;3.22;;
27402;SDS011;14862;49.494;8.530;2022-10-18T16:00:41;5.07;;;2.58;;
27402;SDS011;14862;49.494;8.530;2022-10-18T16:03:07;3.78;;;2.97;;
27402;SDS011;14862;49.494;8.530;2022-10-18T16:05:32;7.80;;;3.95;;
27402;SDS011;14862;49.494;8.530;2022-10-18T16:07:59;5.63;;;2.70;;
27402;SDS011;14862;49.494;8.530;2022-10-18T16:10:24;5.20;;;3.17;;
27402;SDS011;14862;49.494;8.530;2022-10-18T16:12:50;4.68;;;4.10;;
27402;SDS011;14862;49.494;8.530;2022-10-18T16:15:15;6.00;;;4.20;;
27402;SDS011;14862;49.494;8.530;2022-10-18T16:17:40;6.55;;;4.13;;
27402;SDS011;14862;49.494;8.530;2022-10-18T16:20:08;5.05;;;3.17;;
27402;SDS011;14862;49.494;8.530;2022-10-18T16:22:38;5.57;;;3.03;;
27402;SDS011;14862;49.494;8.530;2022-10-18T16:25:03;7.13;;;2.87;;
27402;SDS011;14862;49.494;8.530;2022-10-18T16:27:28;4.93;;;3.45;;
27402;SDS011;14862;49.494;8.530;2022-10-18T16:29:53;8.43;;;3.67;;
27402;SDS011;14862;49.494;8.530;2022-10-18T16:32:18;7.17;;;5.53;;
27402;SDS011;14862;49.494;8.530;2022-10-18T16:34:44;7.73;;;6.07;;
27402;SDS011;14862;49.494;8.530;2022-10-18T16:37:09;8.25;;;5.20;;
27402;SDS011;14862;49.494;8.530;2022-10-18T16:39:35;8.55;;;5.32;;
27402;SDS011;14862;49.494;8.530;2022-10-18T16:42:00;8.38;;;6.07;;
27402;SDS011;14862;49.494;8.530;2022-10-18T16:44:25;8.18;;;5.68;;
27402;SDS011;14862;49.494;8.530;2022-10-18T16:46:50;6.57;;;4.57;;
27402;SDS011;14862;49.494;8.530;2022-10-18T16:49:17;8.50;;;4.25;;
27402;SDS011;14862;49.494;8.530;2022-10-18T16:51:42;8.40;;;4.55;;
27402;SDS011;14862;49.494;8.530;2022-10-18T16:54:08;6.57;;;3.97;;
27402;SDS011;14862;49.494;8.530;2022-10-18T16:56:33;7.10;;;3.27;;
27402;SDS011;14862;49.494;8.530;2022-10-18T16:58:58;3.20;;;2.90;;
27402;SDS011;14862;49.494;8.530;2022-10-18T17:01:24;3.53;;;2.55;;
27402;SDS011;14862;49.494;8.530;2022-10-18T17:03:49;9.45;;;5.43;;
27402;SDS011;14862;49.494;8.530;2022-10-18T17:06:23;3.50;;;2.95;;
27402;SDS011;14862;49.494;8.530;2022-10-18T17:08:48;3.50;;;3.17;;
27402;SDS011;14862;49.494;8.530;2022-10-18T17:11:14;3.70;;;3.17;;
27402;SDS011;14862;49.494;8.530;2022-10-18T17:13:40;3.75;;;2.95;;
27402;SDS011;14862;49.494;8.530;2022-10-18T17:16:05;5.88;;;3.38;;
27402;SDS011;14862;49.494;8.530;2022-10-18T17:18:31;3.58;;;3.00;;
27402;SDS011;14862;49.494;8.530;2022-10-18T17:20:56;3.75;;;3.33;;
27402;SDS011;14862;49.494;8.530;2022-10-18T17:23:24;5.25;;;3.90;;
27402;SDS011;14862;49.494;8.530;2022-10-18T17:25:50;3.58;;;3.22;;
27402;SDS011;14862;49.494;8.530;2022-10-18T17:28:16;5.80;;;3.55;;